sensor_id;sensor_type;location;lat;lon;timestamp;P1;durP1;ratioP1;P2;durP2;ratioP2
71800;SDS011;59647;55.838;37.292;2022-12-18T00:01:16;10.37;;;5.83;;
71800;SDS011;59647;55.838;37.292;2022-12-18T00:03:55;10.93;;;5.30;;
71800;SDS011;59647;55.838;37.292;2022-12-18T00:06:21;13.60;;;7.47;;
71800;SDS011;59647;55.838;37.292;2022-12-18T00:08:49;16.60;;;8.37;;
71800;SDS011;59647;55.838;37.292;2022-12-18T00:11:16;12.60;;;6.73;;
71800;SDS011;59647;55.838;37.292;2022-12-18T00:13:44;9.00;;;5.20;;
71800;SDS011;59647;55.838;37.292;2022-12-18T00:16:12;17.33;;;7.27;;
71800;SDS011;59647;55.838;37.292;2022-12-18T00:18:40;17.00;;;7.50;;
71800;SDS011;59647;55.838;37.292;2022-12-18T00:21:08;16.97;;;7.10;;
71800;SDS011;59647;55.838;37.292;2022-12-18T00:23:36;10.07;;;4.97;;
71800;SDS011;59647;55.838;37.292;2022-12-18T00:26:05;13.57;;;6.77;;
71800;SDS011;59647;55.838;37.292;2022-12-18T00:28:42;13.90;;;5.70;;
71800;SDS011;59647;55.838;37.292;2022-12-18T00:31:11;20.57;;;9.57;;
71800;SDS011;59647;55.838;37.292;2022-12-18T00:33:47;13.97;;;7.10;;
71800;SDS011;59647;55.838;37.292;2022-12-18T00:36:17;14.63;;;7.37;;
71800;SDS011;59647;55.838;37.292;2022-12-18T00:38:45;14.43;;;6.77;;
71800;SDS011;59647;55.838;37.292;2022-12-18T00:41:12;17.23;;;7.97;;
71800;SDS011;59647;55.838;37.292;2022-12-18T00:43:59;12.97;;;6.57;;
71800;SDS011;59647;55.838;37.292;2022-12-18T00:46:25;12.30;;;7.00;;
71800;SDS011;59647;55.838;37.292;2022-12-18T00:48:51;14.60;;;7.50;;
71800;SDS011;59647;55.838;37.292;2022-12-18T00:51:17;11.40;;;5.73;;
71800;SDS011;59647;55.838;37.292;2022-12-18T00:53:43;16.63;;;6.53;;
71800;SDS011;59647;55.838;37.292;2022-12-18T00:56:09;9.53;;;5.07;;
71800;SDS011;59647;55.838;37.292;2022-12-18T00:58:34;12.10;;;6.07;;
71800;SDS011;59647;55.838;37.292;2022-12-18T01:01:03;10.07;;;4.83;;
71800;SDS011;59647;55.838;37.292;2022-12-18T01:03:32;12.20;;;5.40;;
71800;SDS011;59647;55.838;37.292;2022-12-18T01:05:58;16.17;;;7.67;;
71800;SDS011;59647;55.838;37.292;2022-12-18T01:08:24;11.90;;;5.87;;
71800;SDS011;59647;55.838;37.292;2022-12-18T01:10:50;14.03;;;6.30;;
71800;SDS011;59647;55.838;37.292;2022-12-18T01:13:16;9.13;;;4.70;;
71800;SDS011;59647;55.838;37.292;2022-12-18T01:15:48;10.50;;;6.27;;
71800;SDS011;59647;55.838;37.292;2022-12-18T01:18:15;15.65;;;7.40;;
71800;SDS011;59647;55.838;37.292;2022-12-18T01:20:41;12.17;;;5.10;;
71800;SDS011;59647;55.838;37.292;2022-12-18T01:23:07;7.90;;;4.37;;
71800;SDS011;59647;55.838;37.292;2022-12-18T01:25:35;14.10;;;5.43;;
71800;SDS011;59647;55.838;37.292;2022-12-18T01:28:01;15.17;;;8.60;;
71800;SDS011;59647;55.838;37.292;2022-12-18T01:30:27;14.03;;;5.47;;
71800;SDS011;59647;55.838;37.292;2022-12-18T01:32:53;8.63;;;4.37;;
71800;SDS011;59647;55.838;37.292;2022-12-18T01:35:19;10.27;;;6.17;;
71800;SDS011;59647;55.838;37.292;2022-12-18T01:37:45;12.87;;;6.77;;
71800;SDS011;59647;55.838;37.292;2022-12-18T01:40:11;8.37;;;4.57;;
71800;SDS011;59647;55.838;37.292;2022-12-18T01:42:38;9.37;;;5.23;;
71800;SDS011;59647;55.838;37.292;2022-12-18T01:47:52;11.90;;;5.90;;
71800;SDS011;59647;55.838;37.292;2022-12-18T01:53:10;10.63;;;6.83;;
71800;SDS011;59647;55.838;37.292;2022-12-18T01:55:49;12.70;;;5.37;;
71800;SDS011;59647;55.838;37.292;2022-12-18T01:58:18;14.03;;;7.10;;
71800;SDS011;59647;55.838;37.292;2022-12-18T02:00:46;10.10;;;5.87;;
71800;SDS011;59647;55.838;37.292;2022-12-18T02:03:12;11.57;;;5.43;;
71800;SDS011;59647;55.838;37.292;2022-12-18T02:10:57;12.00;;;5.87;;
71800;SDS011;59647;55.838;37.292;2022-12-18T02:13:59;14.67;;;5.07;;
71800;SDS011;59647;55.838;37.292;2022-12-18T02:16:49;14.13;;;6.03;;
71800;SDS011;59647;55.838;37.292;2022-12-18T02:27:18;10.87;;;6.97;;
71800;SDS011;59647;55.838;37.292;2022-12-18T02:29:51;11.63;;;6.07;;
71800;SDS011;59647;55.838;37.292;2022-12-18T02:32:27;11.53;;;5.83;;
71800;SDS011;59647;55.838;37.292;2022-12-18T02:34:56;8.77;;;4.40;;
71800;SDS011;59647;55.838;37.292;2022-12-18T02:37:29;10.23;;;5.20;;
71800;SDS011;59647;55.838;37.292;2022-12-18T02:39:58;9.43;;;5.90;;
71800;SDS011;59647;55.838;37.292;2022-12-18T02:42:25;10.93;;;4.33;;
71800;SDS011;59647;55.838;37.292;2022-12-18T02:44:56;8.43;;;4.37;;
71800;SDS011;59647;55.838;37.292;2022-12-18T02:47:24;10.70;;;4.90;;
71800;SDS011;59647;55.838;37.292;2022-12-18T02:50:05;9.63;;;5.50;;
71800;SDS011;59647;55.838;37.292;2022-12-18T02:58:54;6.87;;;4.23;;
71800;SDS011;59647;55.838;37.292;2022-12-18T03:01:34;10.90;;;5.63;;
71800;SDS011;59647;55.838;37.292;2022-12-18T03:04:09;9.97;;;5.00;;
71800;SDS011;59647;55.838;37.292;2022-12-18T03:06:43;9.10;;;4.47;;
71800;SDS011;59647;55.838;37.292;2022-12-18T03:09:15;5.33;;;3.40;;
71800;SDS011;59647;55.838;37.292;2022-12-18T03:14:50;10.33;;;4.80;;
71800;SDS011;59647;55.838;37.292;2022-12-18T03:17:21;7.90;;;4.60;;
71800;SDS011;59647;55.838;37.292;2022-12-18T03:19:51;14.30;;;5.93;;
71800;SDS011;59647;55.838;37.292;2022-12-18T03:22:18;7.83;;;3.73;;
71800;SDS011;59647;55.838;37.292;2022-12-18T03:24:49;8.47;;;4.90;;
71800;SDS011;59647;55.838;37.292;2022-12-18T03:27:17;6.53;;;4.27;;
71800;SDS011;59647;55.838;37.292;2022-12-18T03:29:55;8.33;;;4.90;;
71800;SDS011;59647;55.838;37.292;2022-12-18T03:32:47;13.40;;;6.87;;
71800;SDS011;59647;55.838;37.292;2022-12-18T03:35:37;16.37;;;7.40;;
71800;SDS011;59647;55.838;37.292;2022-12-18T03:38:07;10.83;;;5.87;;
71800;SDS011;59647;55.838;37.292;2022-12-18T03:46:43;11.05;;;4.82;;
71800;SDS011;59647;55.838;37.292;2022-12-18T03:49:32;11.57;;;5.67;;
71800;SDS011;59647;55.838;37.292;2022-12-18T03:52:19;9.30;;;5.47;;
71800;SDS011;59647;55.838;37.292;2022-12-18T03:54:51;10.37;;;4.93;;
71800;SDS011;59647;55.838;37.292;2022-12-18T03:57:22;11.70;;;7.10;;
71800;SDS011;59647;55.838;37.292;2022-12-18T03:59:54;6.37;;;2.80;;
71800;SDS011;59647;55.838;37.292;2022-12-18T04:02:29;8.53;;;4.63;;
71800;SDS011;59647;55.838;37.292;2022-12-18T04:04:59;9.87;;;4.77;;
71800;SDS011;59647;55.838;37.292;2022-12-18T04:07:28;9.87;;;5.10;;
71800;SDS011;59647;55.838;37.292;2022-12-18T04:09:57;7.67;;;3.57;;
71800;SDS011;59647;55.838;37.292;2022-12-18T04:12:25;12.60;;;4.17;;
71800;SDS011;59647;55.838;37.292;2022-12-18T04:14:55;14.43;;;6.73;;
71800;SDS011;59647;55.838;37.292;2022-12-18T04:17:21;12.80;;;6.00;;
71800;SDS011;59647;55.838;37.292;2022-12-18T04:19:48;8.90;;;4.00;;
71800;SDS011;59647;55.838;37.292;2022-12-18T04:22:15;8.67;;;4.83;;
71800;SDS011;59647;55.838;37.292;2022-12-18T04:24:45;10.33;;;5.67;;
71800;SDS011;59647;55.838;37.292;2022-12-18T04:27:20;9.18;;;4.18;;
71800;SDS011;59647;55.838;37.292;2022-12-18T04:29:48;6.73;;;3.67;;
71800;SDS011;59647;55.838;37.292;2022-12-18T04:32:16;9.57;;;5.73;;
71800;SDS011;59647;55.838;37.292;2022-12-18T04:34:43;8.60;;;3.93;;
71800;SDS011;59647;55.838;37.292;2022-12-18T04:37:09;6.40;;;3.70;;
71800;SDS011;59647;55.838;37.292;2022-12-18T04:39:37;7.67;;;3.90;;
71800;SDS011;59647;55.838;37.292;2022-12-18T04:42:09;12.37;;;6.57;;
71800;SDS011;59647;55.838;37.292;2022-12-18T04:44:34;6.60;;;3.27;;
71800;SDS011;59647;55.838;37.292;2022-12-18T04:47:01;10.60;;;5.70;;
71800;SDS011;59647;55.838;37.292;2022-12-18T04:49:27;10.93;;;5.73;;
71800;SDS011;59647;55.838;37.292;2022-12-18T04:51:53;9.37;;;4.80;;
71800;SDS011;59647;55.838;37.292;2022-12-18T04:54:21;11.57;;;5.83;;
71800;SDS011;59647;55.838;37.292;2022-12-18T04:56:48;15.67;;;5.50;;
71800;SDS011;59647;55.838;37.292;2022-12-18T04:59:17;12.03;;;7.30;;
71800;SDS011;59647;55.838;37.292;2022-12-18T05:01:43;10.93;;;5.37;;
71800;SDS011;59647;55.838;37.292;2022-12-18T05:04:09;10.87;;;6.37;;
71800;SDS011;59647;55.838;37.292;2022-12-18T05:06:34;12.00;;;6.80;;
71800;SDS011;59647;55.838;37.292;2022-12-18T05:09:00;6.90;;;4.27;;
71800;SDS011;59647;55.838;37.292;2022-12-18T05:11:26;11.83;;;5.53;;
71800;SDS011;59647;55.838;37.292;2022-12-18T05:13:52;9.50;;;5.87;;
71800;SDS011;59647;55.838;37.292;2022-12-18T05:16:21;12.47;;;6.37;;
71800;SDS011;59647;55.838;37.292;2022-12-18T05:18:47;10.63;;;4.67;;
71800;SDS011;59647;55.838;37.292;2022-12-18T05:21:13;12.53;;;4.67;;
71800;SDS011;59647;55.838;37.292;2022-12-18T05:23:38;12.57;;;6.10;;
71800;SDS011;59647;55.838;37.292;2022-12-18T05:26:05;12.17;;;5.73;;
71800;SDS011;59647;55.838;37.292;2022-12-18T05:28:33;19.47;;;6.00;;
71800;SDS011;59647;55.838;37.292;2022-12-18T05:31:01;9.10;;;5.30;;
71800;SDS011;59647;55.838;37.292;2022-12-18T05:33:32;9.53;;;5.83;;
71800;SDS011;59647;55.838;37.292;2022-12-18T05:36:00;10.20;;;4.77;;
71800;SDS011;59647;55.838;37.292;2022-12-18T05:38:27;11.23;;;7.07;;
71800;SDS011;59647;55.838;37.292;2022-12-18T05:40:53;14.13;;;7.40;;
71800;SDS011;59647;55.838;37.292;2022-12-18T05:43:20;8.77;;;4.27;;
71800;SDS011;59647;55.838;37.292;2022-12-18T05:45:48;6.67;;;4.17;;
71800;SDS011;59647;55.838;37.292;2022-12-18T05:48:14;8.53;;;3.83;;
71800;SDS011;59647;55.838;37.292;2022-12-18T05:50:42;7.93;;;4.60;;
71800;SDS011;59647;55.838;37.292;2022-12-18T05:53:10;11.43;;;5.87;;
71800;SDS011;59647;55.838;37.292;2022-12-18T05:55:38;8.60;;;4.73;;
71800;SDS011;59647;55.838;37.292;2022-12-18T05:58:05;9.23;;;3.87;;
71800;SDS011;59647;55.838;37.292;2022-12-18T06:00:33;12.23;;;6.23;;
71800;SDS011;59647;55.838;37.292;2022-12-18T06:03:05;7.80;;;4.13;;
71800;SDS011;59647;55.838;37.292;2022-12-18T06:05:38;13.60;;;5.70;;
71800;SDS011;59647;55.838;37.292;2022-12-18T06:08:06;8.73;;;4.50;;
71800;SDS011;59647;55.838;37.292;2022-12-18T06:10:32;10.73;;;5.10;;
71800;SDS011;59647;55.838;37.292;2022-12-18T06:12:59;8.07;;;4.83;;
71800;SDS011;59647;55.838;37.292;2022-12-18T06:15:28;19.50;;;8.17;;
71800;SDS011;59647;55.838;37.292;2022-12-18T06:17:55;8.97;;;3.47;;
71800;SDS011;59647;55.838;37.292;2022-12-18T06:20:23;7.03;;;3.87;;
71800;SDS011;59647;55.838;37.292;2022-12-18T06:22:51;8.30;;;4.53;;
71800;SDS011;59647;55.838;37.292;2022-12-18T06:25:17;10.83;;;5.13;;
71800;SDS011;59647;55.838;37.292;2022-12-18T06:27:43;11.90;;;5.93;;
71800;SDS011;59647;55.838;37.292;2022-12-18T06:30:10;14.73;;;6.47;;
71800;SDS011;59647;55.838;37.292;2022-12-18T06:32:38;10.70;;;6.17;;
71800;SDS011;59647;55.838;37.292;2022-12-18T06:35:04;10.07;;;5.10;;
71800;SDS011;59647;55.838;37.292;2022-12-18T06:37:33;9.93;;;4.00;;
71800;SDS011;59647;55.838;37.292;2022-12-18T06:40:00;9.63;;;4.43;;
71800;SDS011;59647;55.838;37.292;2022-12-18T06:42:28;9.33;;;4.37;;
71800;SDS011;59647;55.838;37.292;2022-12-18T06:44:54;9.17;;;5.10;;
71800;SDS011;59647;55.838;37.292;2022-12-18T06:47:20;9.87;;;4.80;;
71800;SDS011;59647;55.838;37.292;2022-12-18T06:49:46;10.83;;;5.93;;
71800;SDS011;59647;55.838;37.292;2022-12-18T06:52:16;12.03;;;5.10;;
71800;SDS011;59647;55.838;37.292;2022-12-18T06:54:41;8.23;;;3.93;;
71800;SDS011;59647;55.838;37.292;2022-12-18T06:57:07;11.90;;;5.80;;
71800;SDS011;59647;55.838;37.292;2022-12-18T06:59:33;8.53;;;4.07;;
71800;SDS011;59647;55.838;37.292;2022-12-18T07:01:59;11.73;;;6.37;;
71800;SDS011;59647;55.838;37.292;2022-12-18T07:04:29;20.40;;;5.53;;
71800;SDS011;59647;55.838;37.292;2022-12-18T07:06:56;7.87;;;4.10;;
71800;SDS011;59647;55.838;37.292;2022-12-18T07:09:23;6.93;;;3.70;;
71800;SDS011;59647;55.838;37.292;2022-12-18T07:11:49;8.57;;;3.13;;
71800;SDS011;59647;55.838;37.292;2022-12-18T07:14:16;8.00;;;3.67;;
71800;SDS011;59647;55.838;37.292;2022-12-18T07:16:42;7.17;;;3.93;;
71800;SDS011;59647;55.838;37.292;2022-12-18T07:19:08;5.80;;;3.17;;
71800;SDS011;59647;55.838;37.292;2022-12-18T07:21:33;8.77;;;4.33;;
71800;SDS011;59647;55.838;37.292;2022-12-18T07:23:59;5.03;;;2.70;;
71800;SDS011;59647;55.838;37.292;2022-12-18T07:26:26;6.03;;;3.20;;
71800;SDS011;59647;55.838;37.292;2022-12-18T07:28:54;10.13;;;4.50;;
71800;SDS011;59647;55.838;37.292;2022-12-18T07:31:24;7.90;;;4.33;;
71800;SDS011;59647;55.838;37.292;2022-12-18T07:33:52;8.67;;;4.03;;
71800;SDS011;59647;55.838;37.292;2022-12-18T07:36:19;10.03;;;5.63;;
71800;SDS011;59647;55.838;37.292;2022-12-18T07:38:48;9.70;;;3.67;;
71800;SDS011;59647;55.838;37.292;2022-12-18T07:41:15;8.20;;;4.73;;
71800;SDS011;59647;55.838;37.292;2022-12-18T07:43:41;8.77;;;4.10;;
71800;SDS011;59647;55.838;37.292;2022-12-18T07:46:08;10.63;;;3.57;;
71800;SDS011;59647;55.838;37.292;2022-12-18T07:48:35;13.80;;;5.23;;
71800;SDS011;59647;55.838;37.292;2022-12-18T07:51:04;9.70;;;4.70;;
71800;SDS011;59647;55.838;37.292;2022-12-18T07:53:31;6.17;;;3.03;;
71800;SDS011;59647;55.838;37.292;2022-12-18T07:56:00;7.57;;;4.20;;
71800;SDS011;59647;55.838;37.292;2022-12-18T07:58:32;9.33;;;4.67;;
71800;SDS011;59647;55.838;37.292;2022-12-18T08:01:07;9.10;;;3.77;;
71800;SDS011;59647;55.838;37.292;2022-12-18T08:03:35;6.47;;;3.07;;
71800;SDS011;59647;55.838;37.292;2022-12-18T08:06:04;8.83;;;4.07;;
71800;SDS011;59647;55.838;37.292;2022-12-18T08:08:32;8.87;;;4.43;;
71800;SDS011;59647;55.838;37.292;2022-12-18T08:10:58;10.43;;;3.67;;
71800;SDS011;59647;55.838;37.292;2022-12-18T08:13:26;7.03;;;4.00;;
71800;SDS011;59647;55.838;37.292;2022-12-18T08:15:57;8.70;;;3.60;;
71800;SDS011;59647;55.838;37.292;2022-12-18T08:18:28;6.78;;;3.50;;
71800;SDS011;59647;55.838;37.292;2022-12-18T08:20:55;7.73;;;4.10;;
71800;SDS011;59647;55.838;37.292;2022-12-18T08:23:24;8.87;;;4.57;;
71800;SDS011;59647;55.838;37.292;2022-12-18T08:25:50;7.10;;;3.83;;
71800;SDS011;59647;55.838;37.292;2022-12-18T08:28:18;11.23;;;3.73;;
71800;SDS011;59647;55.838;37.292;2022-12-18T08:30:51;8.33;;;3.63;;
71800;SDS011;59647;55.838;37.292;2022-12-18T08:33:18;14.63;;;4.23;;
71800;SDS011;59647;55.838;37.292;2022-12-18T08:35:48;4.13;;;2.37;;
71800;SDS011;59647;55.838;37.292;2022-12-18T08:38:14;11.33;;;3.93;;
71800;SDS011;59647;55.838;37.292;2022-12-18T08:40:41;5.67;;;2.43;;
71800;SDS011;59647;55.838;37.292;2022-12-18T08:43:11;9.17;;;4.47;;
71800;SDS011;59647;55.838;37.292;2022-12-18T08:45:56;8.37;;;4.30;;
71800;SDS011;59647;55.838;37.292;2022-12-18T08:48:24;7.47;;;3.30;;
71800;SDS011;59647;55.838;37.292;2022-12-18T08:50:57;8.77;;;3.37;;
71800;SDS011;59647;55.838;37.292;2022-12-18T08:53:26;7.10;;;3.00;;
71800;SDS011;59647;55.838;37.292;2022-12-18T08:55:56;4.90;;;2.33;;
71800;SDS011;59647;55.838;37.292;2022-12-18T08:58:36;6.60;;;2.50;;
71800;SDS011;59647;55.838;37.292;2022-12-18T09:01:07;4.57;;;2.33;;
71800;SDS011;59647;55.838;37.292;2022-12-18T09:03:46;9.67;;;3.33;;
71800;SDS011;59647;55.838;37.292;2022-12-18T09:06:14;7.30;;;2.70;;
71800;SDS011;59647;55.838;37.292;2022-12-18T09:08:43;6.87;;;3.07;;
71800;SDS011;59647;55.838;37.292;2022-12-18T09:11:14;7.43;;;3.90;;
71800;SDS011;59647;55.838;37.292;2022-12-18T09:13:52;12.50;;;4.43;;
71800;SDS011;59647;55.838;37.292;2022-12-18T09:16:20;6.10;;;3.17;;
71800;SDS011;59647;55.838;37.292;2022-12-18T09:18:48;8.43;;;3.53;;
71800;SDS011;59647;55.838;37.292;2022-12-18T09:21:17;6.20;;;2.93;;
71800;SDS011;59647;55.838;37.292;2022-12-18T09:23:48;7.80;;;3.50;;
71800;SDS011;59647;55.838;37.292;2022-12-18T09:26:17;5.80;;;3.20;;
71800;SDS011;59647;55.838;37.292;2022-12-18T09:28:45;6.07;;;3.03;;
71800;SDS011;59647;55.838;37.292;2022-12-18T09:31:14;7.97;;;2.97;;
71800;SDS011;59647;55.838;37.292;2022-12-18T09:33:41;5.63;;;2.40;;
71800;SDS011;59647;55.838;37.292;2022-12-18T09:36:07;6.57;;;2.10;;
71800;SDS011;59647;55.838;37.292;2022-12-18T09:38:36;5.07;;;2.30;;
71800;SDS011;59647;55.838;37.292;2022-12-18T09:43:52;8.27;;;3.17;;
71800;SDS011;59647;55.838;37.292;2022-12-18T09:46:30;5.27;;;2.77;;
71800;SDS011;59647;55.838;37.292;2022-12-18T09:49:05;5.53;;;2.80;;
71800;SDS011;59647;55.838;37.292;2022-12-18T09:51:37;6.65;;;2.65;;
71800;SDS011;59647;55.838;37.292;2022-12-18T09:54:18;5.55;;;2.95;;
71800;SDS011;59647;55.838;37.292;2022-12-18T09:56:50;11.07;;;3.40;;
71800;SDS011;59647;55.838;37.292;2022-12-18T09:59:23;7.20;;;2.97;;
71800;SDS011;59647;55.838;37.292;2022-12-18T10:01:58;7.43;;;3.13;;
71800;SDS011;59647;55.838;37.292;2022-12-18T10:04:25;5.60;;;3.37;;
71800;SDS011;59647;55.838;37.292;2022-12-18T10:06:59;6.10;;;2.83;;
71800;SDS011;59647;55.838;37.292;2022-12-18T10:10:07;5.93;;;2.93;;
71800;SDS011;59647;55.838;37.292;2022-12-18T10:15:19;5.97;;;2.60;;
71800;SDS011;59647;55.838;37.292;2022-12-18T10:18:06;11.30;;;4.40;;
71800;SDS011;59647;55.838;37.292;2022-12-18T10:20:46;8.87;;;2.93;;
71800;SDS011;59647;55.838;37.292;2022-12-18T10:25:59;8.67;;;2.70;;
71800;SDS011;59647;55.838;37.292;2022-12-18T10:28:35;5.53;;;3.03;;
71800;SDS011;59647;55.838;37.292;2022-12-18T10:31:04;12.13;;;4.17;;
71800;SDS011;59647;55.838;37.292;2022-12-18T10:33:32;4.53;;;2.40;;
71800;SDS011;59647;55.838;37.292;2022-12-18T10:35:59;5.50;;;3.03;;
71800;SDS011;59647;55.838;37.292;2022-12-18T10:38:26;6.53;;;3.03;;
71800;SDS011;59647;55.838;37.292;2022-12-18T10:43:31;6.97;;;2.97;;
71800;SDS011;59647;55.838;37.292;2022-12-18T10:46:03;4.70;;;2.37;;
71800;SDS011;59647;55.838;37.292;2022-12-18T10:51:05;9.30;;;3.57;;
71800;SDS011;59647;55.838;37.292;2022-12-18T10:53:32;4.67;;;2.67;;
71800;SDS011;59647;55.838;37.292;2022-12-18T10:56:02;6.17;;;3.63;;
71800;SDS011;59647;55.838;37.292;2022-12-18T10:58:31;3.53;;;1.83;;
71800;SDS011;59647;55.838;37.292;2022-12-18T11:03:44;8.47;;;3.87;;
71800;SDS011;59647;55.838;37.292;2022-12-18T11:06:17;4.93;;;2.07;;
71800;SDS011;59647;55.838;37.292;2022-12-18T11:09:02;5.93;;;2.87;;
71800;SDS011;59647;55.838;37.292;2022-12-18T11:11:30;4.03;;;2.27;;
71800;SDS011;59647;55.838;37.292;2022-12-18T11:16:32;5.70;;;3.03;;
71800;SDS011;59647;55.838;37.292;2022-12-18T11:22:20;6.63;;;2.53;;
71800;SDS011;59647;55.838;37.292;2022-12-18T11:24:59;9.13;;;3.27;;
71800;SDS011;59647;55.838;37.292;2022-12-18T11:27:32;4.73;;;2.57;;
71800;SDS011;59647;55.838;37.292;2022-12-18T11:30:10;4.50;;;2.83;;
71800;SDS011;59647;55.838;37.292;2022-12-18T11:32:55;10.83;;;2.43;;
71800;SDS011;59647;55.838;37.292;2022-12-18T11:41:07;6.87;;;3.43;;
71800;SDS011;59647;55.838;37.292;2022-12-18T11:44:14;4.80;;;2.30;;
71800;SDS011;59647;55.838;37.292;2022-12-18T11:46:59;7.07;;;3.63;;
71800;SDS011;59647;55.838;37.292;2022-12-18T11:49:34;4.33;;;1.53;;
71800;SDS011;59647;55.838;37.292;2022-12-18T11:52:09;5.27;;;2.43;;
71800;SDS011;59647;55.838;37.292;2022-12-18T11:54:39;3.60;;;2.40;;
71800;SDS011;59647;55.838;37.292;2022-12-18T11:57:14;4.40;;;2.27;;
71800;SDS011;59647;55.838;37.292;2022-12-18T12:00:16;5.47;;;2.70;;
71800;SDS011;59647;55.838;37.292;2022-12-18T12:08:44;4.50;;;1.83;;
71800;SDS011;59647;55.838;37.292;2022-12-18T12:34:16;9.40;;;3.23;;
71800;SDS011;59647;55.838;37.292;2022-12-18T12:39:14;12.07;;;5.47;;
71800;SDS011;59647;55.838;37.292;2022-12-18T12:41:45;10.50;;;3.50;;
71800;SDS011;59647;55.838;37.292;2022-12-18T12:44:38;13.53;;;4.17;;
71800;SDS011;59647;55.838;37.292;2022-12-18T12:50:01;11.37;;;4.60;;
71800;SDS011;59647;55.838;37.292;2022-12-18T12:54:56;11.97;;;4.83;;
71800;SDS011;59647;55.838;37.292;2022-12-18T12:57:31;6.00;;;2.73;;
71800;SDS011;59647;55.838;37.292;2022-12-18T13:00:09;10.03;;;4.10;;
71800;SDS011;59647;55.838;37.292;2022-12-18T13:05:50;13.47;;;5.07;;
71800;SDS011;59647;55.838;37.292;2022-12-18T13:10:54;15.87;;;5.97;;
71800;SDS011;59647;55.838;37.292;2022-12-18T13:13:50;13.80;;;5.20;;
71800;SDS011;59647;55.838;37.292;2022-12-18T13:18:57;14.27;;;6.20;;
71800;SDS011;59647;55.838;37.292;2022-12-18T13:21:26;11.60;;;3.37;;
71800;SDS011;59647;55.838;37.292;2022-12-18T13:23:55;16.10;;;6.53;;
71800;SDS011;59647;55.838;37.292;2022-12-18T13:29:12;11.33;;;4.50;;
71800;SDS011;59647;55.838;37.292;2022-12-18T13:32:21;14.50;;;6.43;;
71800;SDS011;59647;55.838;37.292;2022-12-18T13:37:53;8.60;;;4.33;;
71800;SDS011;59647;55.838;37.292;2022-12-18T13:41:04;10.40;;;4.13;;
71800;SDS011;59647;55.838;37.292;2022-12-18T13:46:00;14.23;;;5.80;;
71800;SDS011;59647;55.838;37.292;2022-12-18T13:48:52;12.53;;;4.60;;
71800;SDS011;59647;55.838;37.292;2022-12-18T13:51:22;14.17;;;4.13;;
71800;SDS011;59647;55.838;37.292;2022-12-18T13:53:50;12.47;;;3.77;;
71800;SDS011;59647;55.838;37.292;2022-12-18T13:56:23;10.70;;;3.97;;
71800;SDS011;59647;55.838;37.292;2022-12-18T14:01:54;10.73;;;3.73;;
71800;SDS011;59647;55.838;37.292;2022-12-18T14:04:29;8.80;;;4.13;;
71800;SDS011;59647;55.838;37.292;2022-12-18T14:07:13;8.43;;;3.47;;
71800;SDS011;59647;55.838;37.292;2022-12-18T14:09:46;10.50;;;4.60;;
71800;SDS011;59647;55.838;37.292;2022-12-18T14:12:20;8.93;;;3.63;;
71800;SDS011;59647;55.838;37.292;2022-12-18T14:15:13;6.83;;;3.30;;
71800;SDS011;59647;55.838;37.292;2022-12-18T14:17:46;6.10;;;3.17;;
71800;SDS011;59647;55.838;37.292;2022-12-18T14:20:15;9.07;;;3.73;;
71800;SDS011;59647;55.838;37.292;2022-12-18T14:22:46;10.67;;;3.73;;
71800;SDS011;59647;55.838;37.292;2022-12-18T14:25:18;11.57;;;4.13;;
71800;SDS011;59647;55.838;37.292;2022-12-18T14:27:52;9.45;;;2.50;;
71800;SDS011;59647;55.838;37.292;2022-12-18T14:30:42;6.10;;;2.90;;
71800;SDS011;59647;55.838;37.292;2022-12-18T14:33:13;6.07;;;2.53;;
71800;SDS011;59647;55.838;37.292;2022-12-18T14:35:58;7.47;;;3.43;;
71800;SDS011;59647;55.838;37.292;2022-12-18T14:38:43;6.40;;;3.30;;
71800;SDS011;59647;55.838;37.292;2022-12-18T14:41:18;5.47;;;2.60;;
71800;SDS011;59647;55.838;37.292;2022-12-18T14:43:52;9.87;;;3.73;;
71800;SDS011;59647;55.838;37.292;2022-12-18T14:46:30;8.50;;;3.80;;
71800;SDS011;59647;55.838;37.292;2022-12-18T14:49:03;9.23;;;3.60;;
71800;SDS011;59647;55.838;37.292;2022-12-18T14:51:49;4.37;;;2.73;;
71800;SDS011;59647;55.838;37.292;2022-12-18T14:54:21;10.03;;;2.50;;
71800;SDS011;59647;55.838;37.292;2022-12-18T14:57:03;6.80;;;2.90;;
71800;SDS011;59647;55.838;37.292;2022-12-18T14:59:32;6.57;;;3.07;;
71800;SDS011;59647;55.838;37.292;2022-12-18T15:02:04;6.80;;;3.10;;
71800;SDS011;59647;55.838;37.292;2022-12-18T15:05:02;5.27;;;2.77;;
71800;SDS011;59647;55.838;37.292;2022-12-18T15:07:39;6.30;;;3.30;;
71800;SDS011;59647;55.838;37.292;2022-12-18T15:10:12;6.37;;;3.03;;
71800;SDS011;59647;55.838;37.292;2022-12-18T15:13:06;8.40;;;3.53;;
71800;SDS011;59647;55.838;37.292;2022-12-18T15:18:10;8.50;;;3.27;;
71800;SDS011;59647;55.838;37.292;2022-12-18T15:23:35;4.73;;;2.33;;
71800;SDS011;59647;55.838;37.292;2022-12-18T15:26:02;6.87;;;4.23;;
71800;SDS011;59647;55.838;37.292;2022-12-18T15:31:03;7.50;;;3.50;;
71800;SDS011;59647;55.838;37.292;2022-12-18T15:36:21;5.90;;;3.03;;
71800;SDS011;59647;55.838;37.292;2022-12-18T15:38:51;8.87;;;3.80;;
71800;SDS011;59647;55.838;37.292;2022-12-18T15:41:22;9.17;;;4.03;;
71800;SDS011;59647;55.838;37.292;2022-12-18T15:43:50;6.77;;;2.87;;
71800;SDS011;59647;55.838;37.292;2022-12-18T15:48:53;8.93;;;4.47;;
71800;SDS011;59647;55.838;37.292;2022-12-18T15:51:25;10.43;;;4.13;;
71800;SDS011;59647;55.838;37.292;2022-12-18T15:54:03;10.03;;;3.80;;
71800;SDS011;59647;55.838;37.292;2022-12-18T15:56:35;7.60;;;3.73;;
71800;SDS011;59647;55.838;37.292;2022-12-18T15:59:21;8.00;;;3.70;;
71800;SDS011;59647;55.838;37.292;2022-12-18T16:01:49;6.03;;;3.93;;
71800;SDS011;59647;55.838;37.292;2022-12-18T16:04:17;7.87;;;3.90;;
71800;SDS011;59647;55.838;37.292;2022-12-18T16:06:47;5.20;;;3.03;;
71800;SDS011;59647;55.838;37.292;2022-12-18T16:09:14;8.93;;;3.47;;
71800;SDS011;59647;55.838;37.292;2022-12-18T16:11:41;7.77;;;4.03;;
71800;SDS011;59647;55.838;37.292;2022-12-18T16:16:45;9.87;;;4.13;;
71800;SDS011;59647;55.838;37.292;2022-12-18T16:19:14;9.63;;;4.27;;
71800;SDS011;59647;55.838;37.292;2022-12-18T16:21:41;7.33;;;3.57;;
71800;SDS011;59647;55.838;37.292;2022-12-18T16:24:19;9.53;;;4.20;;
71800;SDS011;59647;55.838;37.292;2022-12-18T16:26:49;7.77;;;3.73;;
71800;SDS011;59647;55.838;37.292;2022-12-18T16:29:20;7.70;;;3.00;;
71800;SDS011;59647;55.838;37.292;2022-12-18T16:31:52;10.00;;;3.10;;
71800;SDS011;59647;55.838;37.292;2022-12-18T16:34:24;9.17;;;4.17;;
71800;SDS011;59647;55.838;37.292;2022-12-18T16:36:59;9.73;;;4.53;;
71800;SDS011;59647;55.838;37.292;2022-12-18T16:39:32;10.45;;;4.18;;
71800;SDS011;59647;55.838;37.292;2022-12-18T16:42:01;11.77;;;4.00;;
71800;SDS011;59647;55.838;37.292;2022-12-18T16:44:32;10.73;;;5.00;;
71800;SDS011;59647;55.838;37.292;2022-12-18T16:46:59;10.53;;;5.30;;
71800;SDS011;59647;55.838;37.292;2022-12-18T16:49:29;10.60;;;5.00;;
71800;SDS011;59647;55.838;37.292;2022-12-18T16:51:57;12.37;;;5.40;;
71800;SDS011;59647;55.838;37.292;2022-12-18T16:54:26;11.07;;;4.23;;
71800;SDS011;59647;55.838;37.292;2022-12-18T16:56:59;10.63;;;4.53;;
71800;SDS011;59647;55.838;37.292;2022-12-18T16:59:26;9.70;;;4.03;;
71800;SDS011;59647;55.838;37.292;2022-12-18T17:01:53;6.43;;;3.17;;
71800;SDS011;59647;55.838;37.292;2022-12-18T17:04:20;7.77;;;3.40;;
71800;SDS011;59647;55.838;37.292;2022-12-18T17:06:46;8.17;;;4.43;;